Time;durP1;ratioP1;P1;durP2;ratioP2;P2;SDS_P1;SDS_P2;PMS_P1;PMS_P2;Temp;Humidity;BMP_temperature;BMP_pressure;BME280_temperature;BME280_humidity;BME280_pressure;Samples;Min_cycle;Max_cycle;Signal;HPM_P1;HPM_P2
2022/01/03 00:01:31;;;;;;;3.20;2.07;;;;;;;;;;5073824;28;20456;-70
2022/01/03 00:03:58;;;;;;;2.60;1.70;;;;;;;;;;5073836;28;20459;-70
2022/01/03 00:06:25;;;;;;;2.77;1.83;;;;;;;;;;5073825;28;20474;-70
2022/01/03 00:08:53;;;;;;;2.77;2.50;;;;;;;;;;5073931;28;20514;-70
2022/01/03 00:11:21;;;;;;;3.57;1.77;;;;;;;;;;5073850;28;20672;-70
2022/01/03 00:13:49;;;;;;;3.67;2.47;;;;;;;;;;5073550;28;20522;-70
2022/01/03 00:16:18;;;;;;;3.33;2.20;;;;;;;;;;5073647;28;20855;-70
2022/01/03 00:18:45;;;;;;;4.90;2.63;;;;;;;;;;5073558;28;20451;-70
2022/01/03 00:21:13;;;;;;;3.70;2.40;;;;;;;;;;5073576;28;20933;-70
2022/01/03 00:23:41;;;;;;;5.70;2.23;;;;;;;;;;5073183;28;20459;-70
2022/01/03 00:26:08;;;;;;;2.80;2.03;;;;;;;;;;5073164;28;20475;-70
2022/01/03 00:28:37;;;;;;;4.50;2.30;;;;;;;;;;5073170;28;20919;-70
2022/01/03 00:31:04;;;;;;;3.33;2.40;;;;;;;;;;5073465;28;20456;-70
2022/01/03 00:33:33;;;;;;;2.40;1.73;;;;;;;;;;5073237;28;20825;-70
2022/01/03 00:36:01;;;;;;;2.63;1.90;;;;;;;;;;5073318;28;20468;-70
2022/01/03 00:38:29;;;;;;;1.93;1.30;;;;;;;;;;5072727;28;20444;-70
2022/01/03 00:40:59;;;;;;;5.50;2.07;;;;;;;;;;5073073;28;20467;-70
2022/01/03 00:43:26;;;;;;;3.20;1.80;;;;;;;;;;5073172;28;20943;-70
2022/01/03 00:45:54;;;;;;;2.63;1.70;;;;;;;;;;5073494;28;20464;-70
2022/01/03 00:48:21;;;;;;;2.40;1.67;;;;;;;;;;5073067;28;20831;-69
2022/01/03 00:50:50;;;;;;;3.33;1.83;;;;;;;;;;5073054;28;20451;-69
2022/01/03 00:53:19;;;;;;;2.57;1.90;;;;;;;;;;5073133;28;20447;-69
2022/01/03 00:55:56;;;;;;;2.10;1.70;;;;;;;;;;5072747;28;20540;-69
2022/01/03 00:58:25;;;;;;;3.27;1.77;;;;;;;;;;5073101;28;20956;-69
2022/01/03 01:00:54;;;;;;;4.90;2.37;;;;;;;;;;5072927;28;20819;-69
2022/01/03 01:03:22;;;;;;;2.17;1.53;;;;;;;;;;5073023;28;20451;-70
2022/01/03 01:05:51;;;;;;;3.63;2.00;;;;;;;;;;5072844;28;20478;-70
2022/01/03 01:08:19;;;;;;;3.20;1.97;;;;;;;;;;5072891;28;20951;-70
2022/01/03 01:10:47;;;;;;;2.70;1.97;;;;;;;;;;5072932;28;20810;-70
2022/01/03 01:13:15;;;;;;;3.63;1.73;;;;;;;;;;5072911;28;20452;-70
2022/01/03 01:15:42;;;;;;;3.13;2.03;;;;;;;;;;5072516;28;20479;-70
2022/01/03 01:18:09;;;;;;;7.77;2.27;;;;;;;;;;5072911;28;20451;-70
2022/01/03 01:20:37;;;;;;;9.60;2.40;;;;;;;;;;5072669;28;20447;-70
2022/01/03 01:23:06;;;;;;;3.07;2.17;;;;;;;;;;5072859;28;20443;-70
2022/01/03 01:28:18;;;;;;;5.17;1.87;;;;;;;;;;5072572;28;20978;-70
2022/01/03 01:30:46;;;;;;;4.40;1.80;;;;;;;;;;5072858;28;20456;-70
2022/01/03 01:33:14;;;;;;;2.43;1.70;;;;;;;;;;5072647;28;20447;-70
2022/01/03 01:35:42;;;;;;;1.97;1.57;;;;;;;;;;5072366;28;20467;-70
2022/01/03 01:38:12;;;;;;;5.70;1.83;;;;;;;;;;5075937;28;20961;-70
2022/01/03 01:40:43;;;;;;;8.20;1.90;;;;;;;;;;5076879;28;20466;-70
2022/01/03 01:43:12;;;;;;;4.80;2.00;;;;;;;;;;5076679;28;20458;-70
2022/01/03 01:45:41;;;;;;;2.40;1.70;;;;;;;;;;5076227;28;20482;-70
2022/01/03 01:48:11;;;;;;;3.03;1.70;;;;;;;;;;5076610;28;20457;-70
2022/01/03 01:50:40;;;;;;;4.67;2.23;;;;;;;;;;5076448;28;20483;-70
2022/01/03 01:53:07;;;;;;;2.30;1.60;;;;;;;;;;5076507;28;20451;-70
2022/01/03 01:55:37;;;;;;;2.50;1.63;;;;;;;;;;5076169;28;20480;-70
2022/01/03 01:58:05;;;;;;;1.80;1.30;;;;;;;;;;5076322;28;20454;-70
2022/01/03 02:00:34;;;;;;;3.57;1.80;;;;;;;;;;5076222;28;20439;-70
2022/01/03 02:03:08;;;;;;;2.87;1.70;;;;;;;;;;5076368;28;20456;-70
2022/01/03 02:05:38;;;;;;;3.10;2.07;;;;;;;;;;5075848;28;20471;-70
2022/01/03 02:08:08;;;;;;;2.10;1.73;;;;;;;;;;5076227;28;20451;-70
2022/01/03 02:10:38;;;;;;;5.10;2.33;;;;;;;;;;5076013;28;20483;-70
2022/01/03 02:13:06;;;;;;;4.10;2.17;;;;;;;;;;5076084;28;20451;-70
2022/01/03 02:15:34;;;;;;;5.00;1.70;;;;;;;;;;5075708;28;20990;-70
2022/01/03 02:18:01;;;;;;;3.63;1.67;;;;;;;;;;5075996;28;20482;-70
2022/01/03 02:20:31;;;;;;;4.27;1.70;;;;;;;;;;5076047;28;20936;-70
2022/01/03 02:22:58;;;;;;;3.40;2.07;;;;;;;;;;5075859;28;20509;-70
2022/01/03 02:25:26;;;;;;;5.67;1.83;;;;;;;;;;5075566;28;20498;-70
2022/01/03 02:27:54;;;;;;;2.43;1.83;;;;;;;;;;5075915;28;20928;-70
2022/01/03 02:30:24;;;;;;;3.67;1.63;;;;;;;;;;5074499;28;21011;-70
2022/01/03 02:32:51;;;;;;;7.50;1.83;;;;;;;;;;5074655;28;20466;-70
2022/01/03 02:35:18;;;;;;;4.57;1.37;;;;;;;;;;5074318;28;20475;-70
2022/01/03 02:37:47;;;;;;;4.13;1.93;;;;;;;;;;5073832;28;20632;-70
2022/01/03 02:40:15;;;;;;;2.10;1.70;;;;;;;;;;5074549;28;20447;-70
2022/01/03 02:42:43;;;;;;;3.83;1.53;;;;;;;;;;5074592;28;20822;-70
2022/01/03 02:45:11;;;;;;;4.63;1.63;;;;;;;;;;5074333;28;20467;-70
2022/01/03 02:47:38;;;;;;;2.10;1.50;;;;;;;;;;5073816;28;20459;-70
2022/01/03 02:50:07;;;;;;;6.60;1.73;;;;;;;;;;5074270;28;20828;-70
2022/01/03 02:52:34;;;;;;;3.83;1.67;;;;;;;;;;5074116;28;20459;-70
2022/01/03 02:55:03;;;;;;;2.30;1.70;;;;;;;;;;5074039;28;20507;-70
2022/01/03 02:57:34;;;;;;;1.80;1.40;;;;;;;;;;5074092;28;20447;-70
2022/01/03 03:00:01;;;;;;;2.43;1.30;;;;;;;;;;5074168;28;20452;-70
2022/01/03 03:02:29;;;;;;;4.50;1.60;;;;;;;;;;5074056;28;20462;-70
2022/01/03 03:04:57;;;;;;;2.30;1.60;;;;;;;;;;5073838;28;20463;-70
2022/01/03 03:07:25;;;;;;;4.03;1.87;;;;;;;;;;5073982;28;20451;-70
2022/01/03 03:09:52;;;;;;;4.53;1.47;;;;;;;;;;5074069;28;20495;-70
2022/01/03 03:12:20;;;;;;;3.53;1.50;;;;;;;;;;5073911;28;20463;-70
2022/01/03 03:14:48;;;;;;;1.90;1.10;;;;;;;;;;5073632;28;20472;-70
2022/01/03 03:17:17;;;;;;;2.57;1.57;;;;;;;;;;5074078;28;20455;-70
2022/01/03 03:19:50;;;;;;;9.33;1.80;;;;;;;;;;5073994;28;20466;-70
2022/01/03 03:22:17;;;;;;;2.30;1.43;;;;;;;;;;5073843;28;20475;-69
2022/01/03 03:24:45;;;;;;;2.57;1.33;;;;;;;;;;5073350;28;20472;-70
2022/01/03 03:27:12;;;;;;;4.57;2.70;;;;;;;;;;5073756;28;20452;-70
2022/01/03 03:29:44;;;;;;;1.70;1.20;;;;;;;;;;5036048;28;1058965;-70
2022/01/03 03:32:12;;;;;;;4.20;2.00;;;;;;;;;;5074355;28;20838;-69
2022/01/03 03:34:39;;;;;;;6.03;1.60;;;;;;;;;;5074315;28;20464;-70
2022/01/03 03:37:06;;;;;;;2.70;1.50;;;;;;;;;;5074192;28;20452;-70
2022/01/03 03:39:34;;;;;;;1.60;1.13;;;;;;;;;;5074372;28;20444;-69
2022/01/03 03:42:01;;;;;;;1.97;1.53;;;;;;;;;;5074496;28;20501;-70
2022/01/03 03:44:29;;;;;;;5.33;2.40;;;;;;;;;;5074019;28;20448;-70
2022/01/03 03:46:57;;;;;;;4.53;1.50;;;;;;;;;;5074429;28;20451;-70
2022/01/03 03:49:24;;;;;;;2.10;1.30;;;;;;;;;;5074250;28;20487;-69
2022/01/03 03:51:52;;;;;;;4.70;1.97;;;;;;;;;;5074111;28;20458;-69
2022/01/03 03:54:19;;;;;;;3.00;1.63;;;;;;;;;;5073868;28;20459;-69
2022/01/03 03:56:46;;;;;;;2.63;1.60;;;;;;;;;;5074159;28;20801;-69
2022/01/03 03:59:13;;;;;;;5.23;1.67;;;;;;;;;;5073323;28;20452;-69
2022/01/03 04:01:40;;;;;;;2.77;1.53;;;;;;;;;;5074009;28;20458;-69
2022/01/03 04:04:09;;;;;;;2.40;1.90;;;;;;;;;;5073797;28;20813;-69
2022/01/03 04:06:36;;;;;;;3.53;1.87;;;;;;;;;;5073745;28;20475;-69
2022/01/03 04:09:03;;;;;;;5.13;1.80;;;;;;;;;;5073839;28;20451;-70
2022/01/03 04:11:30;;;;;;;3.00;1.37;;;;;;;;;;5073649;28;20849;-70
2022/01/03 04:13:58;;;;;;;2.83;1.97;;;;;;;;;;5073652;28;20454;-70
2022/01/03 04:16:25;;;;;;;5.53;1.20;;;;;;;;;;5073654;28;20478;-70
2022/01/03 04:18:52;;;;;;;7.33;1.33;;;;;;;;;;5073581;28;20455;-69
2022/01/03 04:21:20;;;;;;;2.73;1.43;;;;;;;;;;5073647;28;20823;-70
2022/01/03 04:23:47;;;;;;;3.60;1.40;;;;;;;;;;5073453;28;20448;-70
2022/01/03 04:26:15;;;;;;;2.97;2.30;;;;;;;;;;5073582;28;20854;-70
2022/01/03 04:28:42;;;;;;;3.63;1.57;;;;;;;;;;5073313;28;20460;-70
2022/01/03 04:31:09;;;;;;;2.73;1.27;;;;;;;;;;5073417;28;20850;-70
2022/01/03 04:33:36;;;;;;;3.03;1.40;;;;;;;;;;5073117;28;20451;-70
2022/01/03 04:36:04;;;;;;;5.40;1.80;;;;;;;;;;5073266;28;20467;-70
2022/01/03 04:38:32;;;;;;;5.40;1.63;;;;;;;;;;5072897;28;20928;-70
2022/01/03 04:41:00;;;;;;;2.70;1.53;;;;;;;;;;5073394;28;20474;-70
2022/01/03 04:43:27;;;;;;;3.20;1.30;;;;;;;;;;5073074;28;20948;-70
2022/01/03 04:45:56;;;;;;;2.30;1.80;;;;;;;;;;5073103;28;20987;-70
2022/01/03 04:48:23;;;;;;;5.03;1.80;;;;;;;;;;5073187;28;20459;-70
2022/01/03 04:50:50;;;;;;;3.63;2.00;;;;;;;;;;5073108;28;20487;-69
2022/01/03 04:53:18;;;;;;;3.20;1.20;;;;;;;;;;5073021;28;20448;-70
2022/01/03 04:55:46;;;;;;;3.90;1.70;;;;;;;;;;5072849;28;20469;-70
2022/01/03 04:58:13;;;;;;;3.60;1.50;;;;;;;;;;5073059;28;20458;-70
2022/01/03 05:00:40;;;;;;;3.83;1.30;;;;;;;;;;5072982;28;20440;-70
2022/01/03 05:03:07;;;;;;;3.83;1.90;;;;;;;;;;5072918;28;20454;-70
2022/01/03 05:05:35;;;;;;;1.87;1.27;;;;;;;;;;5072545;28;20479;-70
2022/01/03 05:08:02;;;;;;;5.27;1.50;;;;;;;;;;5072917;28;20459;-70
2022/01/03 05:10:29;;;;;;;2.80;2.00;;;;;;;;;;5072727;28;20515;-70
2022/01/03 05:12:57;;;;;;;12.97;1.87;;;;;;;;;;5072795;28;20459;-70
2022/01/03 05:15:24;;;;;;;3.13;1.30;;;;;;;;;;5072482;28;20479;-69
2022/01/03 05:17:51;;;;;;;2.03;1.23;;;;;;;;;;5072915;28;20816;-69
2022/01/03 05:20:18;;;;;;;3.50;1.60;;;;;;;;;;5072715;28;20454;-70
2022/01/03 05:22:46;;;;;;;5.00;1.57;;;;;;;;;;5072673;28;20933;-70
2022/01/03 05:25:13;;;;;;;2.63;1.63;;;;;;;;;;5072486;28;20482;-70
2022/01/03 05:27:42;;;;;;;5.37;1.63;;;;;;;;;;5072615;28;20924;-70
2022/01/03 05:30:11;;;;;;;5.20;2.07;;;;;;;;;;5072486;28;20529;-70
2022/01/03 05:32:38;;;;;;;2.80;1.70;;;;;;;;;;5072570;28;20460;-70
2022/01/03 05:35:06;;;;;;;4.43;1.40;;;;;;;;;;5072300;28;21019;-70
2022/01/03 05:37:34;;;;;;;5.00;2.43;;;;;;;;;;5071940;28;20479;-70
2022/01/03 05:40:01;;;;;;;3.00;1.33;;;;;;;;;;5072488;28;20443;-70
2022/01/03 05:42:28;;;;;;;5.77;1.70;;;;;;;;;;5072583;28;20968;-70
2022/01/03 05:44:55;;;;;;;1.90;1.40;;;;;;;;;;5072296;28;20479;-70
2022/01/03 05:47:24;;;;;;;4.90;1.93;;;;;;;;;;5072417;28;20455;-70
2022/01/03 05:49:52;;;;;;;2.93;1.57;;;;;;;;;;5072494;28;20451;-70
2022/01/03 05:52:19;;;;;;;2.27;1.20;;;;;;;;;;5072479;28;20466;-70
2022/01/03 05:54:47;;;;;;;8.13;1.87;;;;;;;;;;5072041;28;20961;-70
2022/01/03 05:57:14;;;;;;;3.57;1.30;;;;;;;;;;5072506;28;20814;-70
2022/01/03 05:59:41;;;;;;;7.80;2.30;;;;;;;;;;5072295;28;20456;-70
2022/01/03 06:02:08;;;;;;;2.00;1.20;;;;;;;;;;5072480;28;20451;-70
2022/01/03 06:04:42;;;;;;;3.00;1.20;;;;;;;;;;5072115;28;21001;-70
2022/01/03 06:07:10;;;;;;;2.20;1.50;;;;;;;;;;5072493;28;20477;-70
2022/01/03 06:09:38;;;;;;;7.27;1.53;;;;;;;;;;5072252;28;20447;-70
2022/01/03 06:12:06;;;;;;;7.60;3.60;;;;;;;;;;5072328;28;20487;-70
2022/01/03 06:14:33;;;;;;;4.80;1.53;;;;;;;;;;5071917;28;20984;-69
2022/01/03 06:17:00;;;;;;;1.80;1.23;;;;;;;;;;5072356;28;20949;-69
2022/01/03 06:19:28;;;;;;;4.47;1.80;;;;;;;;;;5072168;28;20842;-69
2022/01/03 06:21:57;;;;;;;14.60;1.77;;;;;;;;;;5072183;28;20447;-70
2022/01/03 06:24:24;;;;;;;3.00;1.73;;;;;;;;;;5075479;28;20467;-70
2022/01/03 06:26:52;;;;;;;3.73;2.17;;;;;;;;;;5075931;28;20812;-70
2022/01/03 06:29:19;;;;;;;4.77;1.73;;;;;;;;;;5075607;28;20467;-71
2022/01/03 06:31:47;;;;;;;4.27;1.80;;;;;;;;;;5075762;28;20530;-70
2022/01/03 06:34:14;;;;;;;5.03;1.50;;;;;;;;;;5075444;28;20459;-70
2022/01/03 06:36:41;;;;;;;3.80;2.10;;;;;;;;;;5075163;28;20479;-70
2022/01/03 06:39:11;;;;;;;5.03;1.63;;;;;;;;;;5075726;28;20458;-70
2022/01/03 06:41:39;;;;;;;3.03;1.50;;;;;;;;;;5075624;28;21189;-70
2022/01/03 06:44:06;;;;;;;3.90;1.50;;;;;;;;;;5075326;28;20972;-70
2022/01/03 06:46:33;;;;;;;3.70;1.73;;;;;;;;;;5075406;28;20842;-70
2022/01/03 06:49:02;;;;;;;14.40;2.00;;;;;;;;;;5075485;28;20456;-70
2022/01/03 06:51:34;;;;;;;2.70;1.57;;;;;;;;;;5075288;28;20491;-71
2022/01/03 06:54:01;;;;;;;4.50;1.73;;;;;;;;;;5075361;28;20944;-70
2022/01/03 06:56:29;;;;;;;2.60;1.50;;;;;;;;;;5075258;28;20842;-70
2022/01/03 06:58:57;;;;;;;4.20;2.43;;;;;;;;;;5075352;28;20451;-70
2022/01/03 07:01:25;;;;;;;5.73;2.23;;;;;;;;;;5075083;28;20447;-70
2022/01/03 07:03:52;;;;;;;3.97;1.83;;;;;;;;;;5075371;28;20474;-70
2022/01/03 07:06:19;;;;;;;4.33;1.67;;;;;;;;;;5075038;28;20468;-70
2022/01/03 07:08:46;;;;;;;4.23;1.53;;;;;;;;;;5075205;28;20459;-70
2022/01/03 07:11:14;;;;;;;3.17;1.73;;;;;;;;;;5074957;28;21007;-70
2022/01/03 07:13:46;;;;;;;2.20;1.57;;;;;;;;;;5075083;28;20451;-70
2022/01/03 07:18:59;;;;;;;7.33;1.70;;;;;;;;;;5074899;28;20518;-70
2022/01/03 07:21:26;;;;;;;6.47;1.73;;;;;;;;;;5074765;28;20452;-70
2022/01/03 07:23:54;;;;;;;2.60;1.20;;;;;;;;;;5074614;28;20488;-70
2022/01/03 07:26:21;;;;;;;6.20;1.60;;;;;;;;;;5074527;28;20467;-70
2022/01/03 07:28:50;;;;;;;4.50;2.00;;;;;;;;;;5074571;28;20459;-70
2022/01/03 07:31:17;;;;;;;5.10;2.37;;;;;;;;;;5074664;28;20992;-70
2022/01/03 07:33:44;;;;;;;4.60;2.20;;;;;;;;;;5073463;28;20448;-70
2022/01/03 07:36:14;;;;;;;3.87;2.23;;;;;;;;;;5074148;28;20483;-70
2022/01/03 07:38:46;;;;;;;6.40;3.00;;;;;;;;;;5073806;28;20456;-70
2022/01/03 07:41:14;;;;;;;4.73;2.33;;;;;;;;;;5074416;28;20444;-70
2022/01/03 07:43:41;;;;;;;7.20;2.17;;;;;;;;;;5074162;28;20584;-70
2022/01/03 07:46:10;;;;;;;3.10;1.67;;;;;;;;;;5074281;28;20474;-70
2022/01/03 07:48:37;;;;;;;3.63;2.17;;;;;;;;;;5074553;28;21018;-70
2022/01/03 07:51:04;;;;;;;3.53;1.50;;;;;;;;;;5074259;28;20498;-70
2022/01/03 07:53:31;;;;;;;8.00;1.83;;;;;;;;;;5073950;28;20898;-70
2022/01/03 07:55:59;;;;;;;4.23;1.63;;;;;;;;;;5074159;28;20483;-70
2022/01/03 07:58:26;;;;;;;2.20;1.37;;;;;;;;;;5074085;28;20478;-70
2022/01/03 08:00:53;;;;;;;5.47;1.80;;;;;;;;;;5071593;28;20823;-70
2022/01/03 08:03:22;;;;;;;4.80;1.73;;;;;;;;;;5072978;28;20466;-70
2022/01/03 08:05:50;;;;;;;1.90;1.40;;;;;;;;;;5057820;28;20495;-70
2022/01/03 08:08:17;;;;;;;12.93;1.83;;;;;;;;;;5052318;28;20457;-70
2022/01/03 08:10:46;;;;;;;2.93;1.63;;;;;;;;;;5052385;28;20894;-70
2022/01/03 08:13:13;;;;;;;4.87;2.57;;;;;;;;;;5052554;28;20456;-70
2022/01/03 08:15:40;;;;;;;6.80;2.50;;;;;;;;;;5052055;28;20822;-71
2022/01/03 08:18:07;;;;;;;8.60;1.80;;;;;;;;;;5052515;28;20457;-70
2022/01/03 08:20:36;;;;;;;3.37;1.70;;;;;;;;;;5052266;28;20453;-70
2022/01/03 08:23:03;;;;;;;8.07;3.73;;;;;;;;;;5052297;28;20464;-70
2022/01/03 08:25:33;;;;;;;3.70;1.70;;;;;;;;;;5051927;28;20479;-70
2022/01/03 08:28:00;;;;;;;4.90;1.70;;;;;;;;;;5053298;28;20551;-70
2022/01/03 08:30:27;;;;;;;6.40;1.57;;;;;;;;;;5052969;28;20590;-70
2022/01/03 08:32:54;;;;;;;4.33;2.50;;;;;;;;;;5053387;28;20836;-70
2022/01/03 08:35:24;;;;;;;3.40;1.90;;;;;;;;;;5052977;28;20475;-70
2022/01/03 08:37:52;;;;;;;3.53;1.87;;;;;;;;;;5053062;28;20472;-70
2022/01/03 08:40:19;;;;;;;4.60;2.13;;;;;;;;;;5053327;28;20468;-70
2022/01/03 08:42:47;;;;;;;4.60;1.90;;;;;;;;;;5053289;28;20445;-70
2022/01/03 08:45:14;;;;;;;4.47;1.70;;;;;;;;;;5052718;28;20977;-70
2022/01/03 08:47:43;;;;;;;2.93;2.20;;;;;;;;;;5052048;28;20460;-70
2022/01/03 08:50:10;;;;;;;5.67;1.80;;;;;;;;;;5053217;28;20452;-70
2022/01/03 08:52:37;;;;;;;1.90;1.47;;;;;;;;;;5052925;28;20849;-70
2022/01/03 08:55:06;;;;;;;6.30;2.53;;;;;;;;;;5052890;28;20476;-70
2022/01/03 08:57:33;;;;;;;5.50;2.77;;;;;;;;;;5053095;28;20979;-70
2022/01/03 09:00:00;;;;;;;6.70;2.27;;;;;;;;;;5053086;28;20448;-70
2022/01/03 09:02:28;;;;;;;1.50;1.30;;;;;;;;;;5052937;28;20449;-70
2022/01/03 09:04:55;;;;;;;7.20;1.70;;;;;;;;;;5052818;28;20843;-70
2022/01/03 09:07:22;;;;;;;2.80;1.50;;;;;;;;;;5053124;28;20452;-70
2022/01/03 09:09:49;;;;;;;3.83;1.33;;;;;;;;;;5052751;28;20461;-70
2022/01/03 09:12:17;;;;;;;5.43;1.53;;;;;;;;;;5052904;28;21001;-70
2022/01/03 09:14:45;;;;;;;5.90;1.43;;;;;;;;;;5052484;28;20850;-70
2022/01/03 09:17:12;;;;;;;2.83;1.70;;;;;;;;;;5052846;28;20755;-70
2022/01/03 09:19:39;;;;;;;5.00;2.00;;;;;;;;;;5052761;28;20964;-70
2022/01/03 09:22:14;;;;;;;4.43;1.47;;;;;;;;;;5052781;28;20451;-70
2022/01/03 09:24:51;;;;;;;2.00;1.30;;;;;;;;;;5052482;28;20965;-70
2022/01/03 09:30:06;;;;;;;7.33;2.43;;;;;;;;;;5052702;28;20459;-70
2022/01/03 09:32:33;;;;;;;6.83;1.90;;;;;;;;;;5052561;28;20489;-70
2022/01/03 09:35:00;;;;;;;7.80;1.77;;;;;;;;;;5052375;28;20476;-70
2022/01/03 09:37:27;;;;;;;4.10;1.53;;;;;;;;;;5052131;28;20930;-71
2022/01/03 09:39:55;;;;;;;5.73;1.50;;;;;;;;;;5052656;28;20471;-70
2022/01/03 09:42:27;;;;;;;5.00;1.93;;;;;;;;;;5052571;28;20444;-70
2022/01/03 09:44:54;;;;;;;3.27;1.50;;;;;;;;;;5052441;28;20479;-70
2022/01/03 09:47:22;;;;;;;4.03;1.60;;;;;;;;;;5052474;28;20461;-70
2022/01/03 09:49:50;;;;;;;3.03;2.20;;;;;;;;;;5052619;28;20964;-70
2022/01/03 09:52:18;;;;;;;2.50;1.63;;;;;;;;;;5052444;28;20488;-70
2022/01/03 09:54:46;;;;;;;5.23;1.50;;;;;;;;;;5052127;28;20476;-70
2022/01/03 09:57:14;;;;;;;7.83;1.57;;;;;;;;;;5052793;28;20456;-70
2022/01/03 09:59:43;;;;;;;4.10;1.60;;;;;;;;;;5056294;28;20453;-70
2022/01/03 10:02:11;;;;;;;4.90;1.90;;;;;;;;;;5056428;28;20452;-70
2022/01/03 10:04:38;;;;;;;5.73;1.40;;;;;;;;;;5056141;28;20472;-70
2022/01/03 10:07:08;;;;;;;7.63;1.63;;;;;;;;;;5056347;28;20451;-70
2022/01/03 10:09:36;;;;;;;6.60;1.63;;;;;;;;;;5056219;28;21003;-70
2022/01/03 10:12:03;;;;;;;11.37;3.73;;;;;;;;;;5056029;28;20480;-70
2022/01/03 10:14:30;;;;;;;9.00;3.53;;;;;;;;;;5055821;28;20829;-70
2022/01/03 10:16:59;;;;;;;5.80;1.67;;;;;;;;;;5056207;28;20876;-70
2022/01/03 10:19:26;;;;;;;3.00;1.60;;;;;;;;;;5055978;28;20479;-70
2022/01/03 10:21:53;;;;;;;6.03;1.40;;;;;;;;;;5055912;28;20449;-70
2022/01/03 10:24:31;;;;;;;6.60;4.10;;;;;;;;;;5055628;28;20483;-70
2022/01/03 10:26:58;;;;;;;8.57;2.27;;;;;;;;;;5055999;28;20538;-70
2022/01/03 10:29:26;;;;;;;12.17;2.03;;;;;;;;;;5055704;28;20468;-70
2022/01/03 10:31:54;;;;;;;5.43;1.70;;;;;;;;;;5055752;28;20984;-70
2022/01/03 10:34:24;;;;;;;2.60;1.90;;;;;;;;;;5055453;28;20834;-70
2022/01/03 10:36:52;;;;;;;5.07;1.77;;;;;;;;;;5055540;28;21010;-71
2022/01/03 10:39:20;;;;;;;3.83;1.40;;;;;;;;;;5055923;28;20456;-71
2022/01/03 10:41:48;;;;;;;5.37;1.73;;;;;;;;;;5055859;28;20452;-70
2022/01/03 10:44:30;;;;;;;2.80;1.50;;;;;;;;;;5055398;28;20818;-70
2022/01/03 10:46:57;;;;;;;3.30;1.90;;;;;;;;;;5055637;28;20456;-70
2022/01/03 10:49:27;;;;;;;2.43;1.93;;;;;;;;;;5055410;28;20449;-70
2022/01/03 10:51:57;;;;;;;7.53;2.27;;;;;;;;;;5055333;28;20492;-70
2022/01/03 10:54:24;;;;;;;6.47;2.63;;;;;;;;;;5055142;28;20464;-70
2022/01/03 10:56:51;;;;;;;7.73;2.17;;;;;;;;;;5055281;28;20449;-70
2022/01/03 10:59:21;;;;;;;7.03;1.70;;;;;;;;;;5055327;28;20449;-70
2022/01/03 11:01:50;;;;;;;2.73;1.47;;;;;;;;;;5055455;28;20950;-70
2022/01/03 11:04:29;;;;;;;3.23;1.57;;;;;;;;;;5054985;28;20546;-70
2022/01/03 11:10:43;;;;;;;4.53;2.07;;;;;;;;;;5055194;28;20456;-70
2022/01/03 11:13:10;;;;;;;10.33;2.90;;;;;;;;;;5054904;28;21035;-70
2022/01/03 11:15:38;;;;;;;4.20;1.80;;;;;;;;;;5054592;28;20472;-71
2022/01/03 11:18:12;;;;;;;6.00;1.63;;;;;;;;;;5055117;28;20539;-70
2022/01/03 11:20:41;;;;;;;1.50;1.10;;;;;;;;;;5054772;28;20824;-70
2022/01/03 11:23:08;;;;;;;3.83;1.50;;;;;;;;;;5054836;28;20455;-70
2022/01/03 11:25:37;;;;;;;4.63;1.47;;;;;;;;;;5054513;28;20472;-70
2022/01/03 11:28:05;;;;;;;5.63;3.20;;;;;;;;;;5054700;28;20456;-70
2022/01/03 11:30:32;;;;;;;5.73;1.93;;;;;;;;;;5054616;28;20973;-70
2022/01/03 11:33:00;;;;;;;11.17;2.00;;;;;;;;;;5054604;28;20495;-70
2022/01/03 11:35:27;;;;;;;3.20;1.70;;;;;;;;;;5054259;28;20487;-70
2022/01/03 11:38:00;;;;;;;3.00;1.30;;;;;;;;;;5054523;28;20444;-70
2022/01/03 11:40:28;;;;;;;3.90;1.97;;;;;;;;;;5054496;28;20510;-70
2022/01/03 11:42:55;;;;;;;4.43;1.93;;;;;;;;;;5054408;28;20449;-70
2022/01/03 11:45:22;;;;;;;4.13;2.43;;;;;;;;;;5054126;28;20472;-70
2022/01/03 11:47:50;;;;;;;4.90;1.73;;;;;;;;;;5054372;28;20460;-70
2022/01/03 11:50:18;;;;;;;7.67;1.93;;;;;;;;;;5054379;28;20457;-70
2022/01/03 11:52:46;;;;;;;4.30;1.70;;;;;;;;;;5054294;28;21023;-70
2022/01/03 11:55:15;;;;;;;6.13;1.47;;;;;;;;;;5053918;28;20896;-70
2022/01/03 11:58:08;;;;;;;4.03;1.50;;;;;;;;;;5054045;28;20467;-70
2022/01/03 12:03:40;;;;;;;2.90;1.50;;;;;;;;;;5054070;28;20424;-70
2022/01/03 12:06:08;;;;;;;2.30;1.10;;;;;;;;;;5053973;28;21135;-70
2022/01/03 12:08:36;;;;;;;3.43;1.50;;;;;;;;;;5053767;28;20463;-70
2022/01/03 12:11:18;;;;;;;4.73;2.00;;;;;;;;;;5053920;28;20837;-70
2022/01/03 12:13:49;;;;;;;6.17;2.87;;;;;;;;;;5053581;28;20488;-70
2022/01/03 12:16:16;;;;;;;4.90;1.97;;;;;;;;;;5053682;28;20469;-70
2022/01/03 12:18:57;;;;;;;2.83;1.73;;;;;;;;;;5053787;28;21006;-70
2022/01/03 12:21:49;;;;;;;2.50;1.27;;;;;;;;;;5053134;28;20834;-70
2022/01/03 12:24:31;;;;;;;8.90;1.50;;;;;;;;;;5053396;28;20449;-70
2022/01/03 12:27:13;;;;;;;4.63;1.60;;;;;;;;;;5053477;28;20456;-70
2022/01/03 12:29:55;;;;;;;1.83;1.43;;;;;;;;;;5040840;28;20522;-70
2022/01/03 12:32:24;;;;;;;2.03;1.27;;;;;;;;;;5053134;28;20558;-70
2022/01/03 12:35:06;;;;;;;1.50;1.03;;;;;;;;;;5053227;28;20481;-70
2022/01/03 12:37:35;;;;;;;5.50;1.70;;;;;;;;;;5053258;28;20452;-70
2022/01/03 12:40:12;;;;;;;3.80;1.70;;;;;;;;;;5053551;28;20441;-70
2022/01/03 12:42:55;;;;;;;2.90;1.40;;;;;;;;;;5053339;28;20490;-70
2022/01/03 12:45:43;;;;;;;3.07;1.30;;;;;;;;;;5053077;28;20950;-70
2022/01/03 12:48:21;;;;;;;2.03;1.13;;;;;;;;;;5053300;28;20515;-70
2022/01/03 12:51:05;;;;;;;2.70;1.20;;;;;;;;;;5053222;28;20933;-70
2022/01/03 12:53:40;;;;;;;7.50;1.30;;;;;;;;;;5052947;28;20491;-71
2022/01/03 12:56:09;;;;;;;3.40;1.30;;;;;;;;;;5053148;28;20476;-70
2022/01/03 12:58:43;;;;;;;6.43;1.20;;;;;;;;;;5052381;28;20452;-71
2022/01/03 13:01:23;;;;;;;3.23;1.33;;;;;;;;;;5053179;28;20495;-71
2022/01/03 13:03:52;;;;;;;2.20;1.37;;;;;;;;;;5052742;28;20514;-71
2022/01/03 13:06:20;;;;;;;5.67;1.30;;;;;;;;;;5052874;28;20895;-71
2022/01/03 13:09:02;;;;;;;5.03;1.30;;;;;;;;;;5052966;28;20559;-71
2022/01/03 13:11:31;;;;;;;2.40;1.60;;;;;;;;;;5052932;28;20962;-71
2022/01/03 13:13:59;;;;;;;2.70;1.50;;;;;;;;;;5052718;28;21072;-71
2022/01/03 13:16:27;;;;;;;2.47;1.30;;;;;;;;;;5052627;28;20540;-71
2022/01/03 13:18:57;;;;;;;2.43;1.33;;;;;;;;;;5052858;28;20989;-71
2022/01/03 13:21:26;;;;;;;1.87;1.33;;;;;;;;;;5052743;28;20457;-71
2022/01/03 13:23:53;;;;;;;4.40;1.70;;;;;;;;;;5052422;28;20456;-71
2022/01/03 13:26:21;;;;;;;2.97;1.50;;;;;;;;;;5052648;28;21060;-71
2022/01/03 13:28:49;;;;;;;2.20;1.43;;;;;;;;;;5052637;28;20464;-71
2022/01/03 13:31:16;;;;;;;3.20;1.50;;;;;;;;;;5053195;28;20964;-70
2022/01/03 13:33:43;;;;;;;2.90;1.50;;;;;;;;;;5056601;28;20852;-71
2022/01/03 13:36:15;;;;;;;5.97;1.73;;;;;;;;;;5056767;28;20843;-71
2022/01/03 13:38:42;;;;;;;2.90;1.13;;;;;;;;;;5056343;28;20453;-71
2022/01/03 13:41:15;;;;;;;4.13;1.30;;;;;;;;;;5056787;28;20820;-71
2022/01/03 13:43:47;;;;;;;3.77;1.33;;;;;;;;;;5056409;28;20445;-71
2022/01/03 13:49:13;;;;;;;7.57;1.90;;;;;;;;;;5056729;28;20466;-71
2022/01/03 13:51:46;;;;;;;4.20;1.57;;;;;;;;;;5056445;28;20456;-71
2022/01/03 13:54:23;;;;;;;3.40;1.40;;;;;;;;;;5056265;28;21191;-71
2022/01/03 13:56:51;;;;;;;6.43;1.90;;;;;;;;;;5056375;28;20495;-71
2022/01/03 13:59:18;;;;;;;8.93;1.87;;;;;;;;;;5056485;28;21005;-71
2022/01/03 14:01:46;;;;;;;2.70;1.30;;;;;;;;;;5056564;28;20484;-71
2022/01/03 14:04:23;;;;;;;4.97;1.60;;;;;;;;;;5056069;28;20463;-71
2022/01/03 14:07:06;;;;;;;4.67;1.50;;;;;;;;;;5057952;28;20475;-71
2022/01/03 14:09:41;;;;;;;3.13;1.40;;;;;;;;;;5058713;28;20471;-70
2022/01/03 14:12:09;;;;;;;3.67;1.20;;;;;;;;;;5057955;28;20452;-70
2022/01/03 14:14:44;;;;;;;6.50;1.27;;;;;;;;;;5057498;28;20492;-71
2022/01/03 14:17:12;;;;;;;4.33;1.67;;;;;;;;;;5056460;28;20900;-71
2022/01/03 14:19:39;;;;;;;1.70;1.40;;;;;;;;;;5056140;28;20956;-71
2022/01/03 14:22:12;;;;;;;3.63;1.57;;;;;;;;;;5056109;28;20819;-71
2022/01/03 14:24:54;;;;;;;2.67;1.40;;;;;;;;;;5055755;28;20469;-71
2022/01/03 14:27:21;;;;;;;2.20;1.47;;;;;;;;;;5056081;28;20461;-71
2022/01/03 14:29:49;;;;;;;7.40;1.57;;;;;;;;;;5056051;28;20492;-71
2022/01/03 14:32:16;;;;;;;2.83;1.63;;;;;;;;;;5055769;28;20452;-71
2022/01/03 14:34:50;;;;;;;6.40;1.63;;;;;;;;;;5055422;28;20575;-70
2022/01/03 14:37:24;;;;;;;3.53;1.40;;;;;;;;;;5055445;28;20456;-71
2022/01/03 14:39:52;;;;;;;1.87;1.30;;;;;;;;;;5055684;28;20937;-71
2022/01/03 14:42:22;;;;;;;3.20;2.20;;;;;;;;;;5055713;28;20536;-71
2022/01/03 14:44:49;;;;;;;6.63;1.57;;;;;;;;;;5055090;28;20507;-71
2022/01/03 14:47:17;;;;;;;4.33;1.23;;;;;;;;;;5055496;28;20543;-71
2022/01/03 14:49:56;;;;;;;3.60;1.20;;;;;;;;;;5055503;28;20536;-71
2022/01/03 14:52:32;;;;;;;5.23;2.20;;;;;;;;;;5055399;28;20448;-71
2022/01/03 14:55:00;;;;;;;3.00;1.50;;;;;;;;;;5054536;28;20472;-71
2022/01/03 14:57:29;;;;;;;3.20;2.40;;;;;;;;;;5055252;28;20937;-71
2022/01/03 14:59:57;;;;;;;2.40;1.60;;;;;;;;;;5055238;28;20499;-71
2022/01/03 15:02:24;;;;;;;2.30;1.57;;;;;;;;;;5057842;28;21046;-71
2022/01/03 15:04:51;;;;;;;5.87;2.17;;;;;;;;;;5074514;28;20471;-71
2022/01/03 15:07:18;;;;;;;2.43;1.50;;;;;;;;;;5074186;28;20933;-70
2022/01/03 15:09:47;;;;;;;4.13;1.90;;;;;;;;;;5074886;28;20448;-70
2022/01/03 15:12:14;;;;;;;3.83;1.63;;;;;;;;;;5075219;28;20451;-70